Time;durP1;ratioP1;P1;durP2;ratioP2;P2;SDS_P1;SDS_P2;PMS_P1;PMS_P2;Temp;Humidity;BMP_temperature;BMP_pressure;BME280_temperature;BME280_humidity;BME280_pressure;Samples;Min_cycle;Max_cycle;Signal;HPM_P1;HPM_P2
2022/02/11 00:01:09;;;;;;;20.40;10.50;;;;;0.90;97944.40;;;;110469;1251;41312;-63
2022/02/11 00:09:14;;;;;;;23.10;9.90;;;;;0.90;97945.60;;;;110647;1251;41610;-58
2022/02/11 00:11:44;;;;;;;23.00;10.10;;;;;0.96;97942.60;;;;110650;1252;41200;-63
2022/02/11 00:14:13;;;;;;;23.20;10.10;;;;;0.92;97942.20;;;;110733;1250;41575;-59
2022/02/11 00:16:43;;;;;;;20.70;10.20;;;;;0.90;97940.40;;;;110529;1250;41162;-59
2022/02/11 00:19:13;;;;;;;19.60;9.60;;;;;0.90;97939.20;;;;110610;1250;41169;-60
2022/02/11 00:21:43;;;;;;;20.80;9.70;;;;;0.82;97939.80;;;;110577;1251;41127;-60
2022/02/11 00:24:14;;;;;;;22.10;9.90;;;;;0.80;97940.40;;;;110533;1253;41601;-58
2022/02/11 00:26:55;;;;;;;23.60;10.30;;;;;0.80;97935.20;;;;110667;1250;41376;-59
2022/02/11 00:32:23;;;;;;;17.00;7.50;;;;;0.80;97942.40;;;;110561;1253;41606;-58
2022/02/11 00:35:01;;;;;;;21.20;9.80;;;;;0.80;97942.00;;;;110571;1251;42410;-59
2022/02/11 00:37:35;;;;;;;20.30;10.00;;;;;0.80;97935.60;;;;110533;1253;41609;-60
2022/02/11 00:40:26;;;;;;;17.50;9.20;;;;;0.80;97939.00;;;;110493;1251;41313;-59
2022/02/11 00:45:46;;;;;;;23.50;10.50;;;;;0.70;97932.20;;;;110585;1251;41514;-64
2022/02/11 01:02:25;;;;;;;20.80;10.20;;;;;0.40;97926.60;;;;110708;1250;42544;-59
2022/02/11 01:04:55;;;;;;;20.60;9.90;;;;;0.40;97926.20;;;;110453;1253;41782;-59
2022/02/11 01:07:24;;;;;;;19.50;8.70;;;;;0.32;97921.00;;;;110482;1250;41738;-59
2022/02/11 01:09:56;;;;;;;20.60;9.50;;;;;0.30;97928.40;;;;110650;1250;41153;-59
2022/02/11 01:12:28;;;;;;;16.40;8.80;;;;;0.30;97924.60;;;;110716;1250;41805;-58
2022/02/11 01:14:58;;;;;;;21.90;9.20;;;;;0.30;97924.60;;;;110691;1251;42376;-59
2022/02/11 01:23:12;;;;;;;16.50;8.50;;;;;0.20;97914.80;;;;110626;1251;41215;-59
2022/02/11 01:31:18;;;;;;;19.80;7.50;;;;;0.10;97921.20;;;;110890;1250;42212;-59
2022/02/11 01:45:08;;;;;;;23.20;9.40;;;;;0.10;97911.20;;;;110662;1251;41214;-62
2022/02/11 02:04:57;;;;;;;17.80;8.00;;;;;0.00;97908.40;;;;110556;1251;41166;-59
2022/02/11 02:15:38;;;;;;;12.70;6.60;;;;;-0.10;97904.00;;;;110604;1253;41188;-64
2022/02/11 02:18:56;;;;;;;15.60;6.70;;;;;-0.10;97901.40;;;;110787;1250;41155;-59
2022/02/11 02:38:05;;;;;;;14.70;7.00;;;;;-0.30;97900.40;;;;110804;1250;41464;-62
2022/02/11 02:57:53;;;;;;;14.00;6.80;;;;;-0.40;97896.20;;;;110379;1254;41613;-58
2022/02/11 03:14:58;;;;;;;15.10;7.40;;;;;-0.52;97906.60;;;;110701;1250;41168;-59
2022/02/11 04:55:06;;;;;;;14.60;6.60;;;;;-0.90;97913.60;;;;110605;1250;41140;-63
2022/02/11 05:00:23;;;;;;;16.10;8.00;;;;;-1.00;97917.20;;;;110598;1250;41164;-63
2022/02/11 05:02:57;;;;;;;17.90;9.00;;;;;-1.10;97918.40;;;;110778;1250;42635;-63
2022/02/11 05:05:27;;;;;;;14.70;7.00;;;;;-1.10;97924.20;;;;110833;1250;41178;-64
2022/02/11 05:08:01;;;;;;;17.70;7.90;;;;;-1.10;97931.80;;;;110797;1250;42394;-65
2022/02/11 05:10:31;;;;;;;17.90;7.30;;;;;-1.14;97929.00;;;;110822;1250;41149;-64
2022/02/11 05:13:00;;;;;;;17.60;7.00;;;;;-1.20;97922.00;;;;110669;1251;41169;-58
2022/02/11 05:15:30;;;;;;;15.30;7.50;;;;;-1.20;97930.40;;;;110616;1251;41624;-57
2022/02/11 05:18:01;;;;;;;19.40;9.00;;;;;-1.20;97937.60;;;;110414;1252;42387;-59
2022/02/11 05:20:30;;;;;;;22.00;12.60;;;;;-1.26;97932.20;;;;110588;1251;41830;-58
2022/02/11 05:23:05;;;;;;;19.60;10.20;;;;;-1.30;97930.40;;;;110579;1253;41257;-58
2022/02/11 05:25:35;;;;;;;15.40;7.80;;;;;-1.30;97940.00;;;;110769;1250;41149;-58
2022/02/11 05:28:06;;;;;;;15.80;7.40;;;;;-1.30;97936.60;;;;110581;1253;42549;-59
2022/02/11 05:30:38;;;;;;;13.80;7.10;;;;;-1.30;97937.80;;;;110760;1250;42630;-60
2022/02/11 05:33:12;;;;;;;18.50;8.60;;;;;-1.30;97936.40;;;;110905;1250;40724;-64
2022/02/11 05:35:41;;;;;;;18.50;9.00;;;;;-1.30;97944.40;;;;110572;1253;41628;-58
2022/02/11 05:38:12;;;;;;;15.70;7.10;;;;;-1.30;97943.00;;;;110380;1253;41896;-57
2022/02/11 05:40:41;;;;;;;14.00;6.50;;;;;-1.20;97941.80;;;;110774;1250;41191;-58
2022/02/11 05:43:10;;;;;;;15.50;6.50;;;;;-1.20;97939.40;;;;110794;1250;41703;-58
2022/02/11 05:45:40;;;;;;;13.80;6.70;;;;;-1.10;97938.20;;;;110786;1249;41970;-63
2022/02/11 05:48:10;;;;;;;35.80;14.10;;;;;-1.10;97944.80;;;;110783;1250;42133;-63
2022/02/11 05:50:40;;;;;;;49.40;21.00;;;;;-1.02;97949.80;;;;110462;1253;42003;-59
2022/02/11 05:53:10;;;;;;;56.00;25.10;;;;;-1.00;97947.20;;;;110570;1253;41420;-58
2022/02/11 05:55:40;;;;;;;51.10;22.70;;;;;-1.00;97954.00;;;;110450;1253;41143;-58
2022/02/11 05:58:09;;;;;;;36.90;17.10;;;;;-0.90;97958.60;;;;110613;1253;41404;-58
2022/02/11 06:00:38;;;;;;;40.60;17.90;;;;;-0.90;97952.80;;;;110553;1250;41144;-58
2022/02/11 06:03:08;;;;;;;44.20;19.50;;;;;-0.86;97959.00;;;;110718;1250;41212;-58
2022/02/11 06:05:37;;;;;;;32.80;16.20;;;;;-0.80;97956.60;;;;110584;1251;41185;-59
2022/02/11 06:08:07;;;;;;;30.40;15.00;;;;;-0.80;97961.60;;;;110565;1251;41972;-59
2022/02/11 06:10:37;;;;;;;29.70;13.10;;;;;-0.80;97962.80;;;;110719;1250;42759;-62
2022/02/11 06:13:06;;;;;;;23.10;11.20;;;;;-0.80;97962.80;;;;110545;1253;41163;-61
2022/02/11 06:15:36;;;;;;;26.90;12.90;;;;;-0.72;97969.40;;;;110602;1252;41133;-63
2022/02/11 06:18:07;;;;;;;23.40;11.20;;;;;-0.70;97965.80;;;;110727;1250;41200;-63
2022/02/11 06:20:36;;;;;;;22.70;10.30;;;;;-0.64;97970.00;;;;110705;1250;41139;-58
2022/02/11 06:23:05;;;;;;;22.70;10.70;;;;;-0.60;97963.60;;;;110573;1250;41158;-58
2022/02/11 06:25:35;;;;;;;22.80;10.20;;;;;-0.50;97973.80;;;;110749;1250;41138;-59
2022/02/11 06:28:04;;;;;;;21.10;10.10;;;;;-0.40;97977.60;;;;110729;1250;41153;-58
2022/02/11 06:30:33;;;;;;;24.60;10.50;;;;;-0.30;97972.40;;;;110768;1250;42543;-56
2022/02/11 06:33:02;;;;;;;27.80;13.70;;;;;-0.20;97968.00;;;;110507;1251;41135;-58
2022/02/11 06:35:34;;;;;;;36.70;15.30;;;;;-0.06;97967.00;;;;110557;1253;41158;-61
2022/02/11 06:38:04;;;;;;;41.10;16.70;;;;;0.10;97969.20;;;;110911;1250;40747;-59
2022/02/11 06:40:33;;;;;;;32.10;14.30;;;;;0.36;97976.00;;;;110818;1248;42373;-63
2022/02/11 06:43:03;;;;;;;32.20;13.20;;;;;0.66;97972.00;;;;110779;1250;41158;-63
2022/02/11 06:45:33;;;;;;;26.10;12.50;;;;;1.00;97974.60;;;;110819;1250;41516;-63
2022/02/11 06:48:04;;;;;;;21.00;10.20;;;;;1.40;97967.60;;;;110564;1253;41146;-62
2022/02/11 06:50:33;;;;;;;26.30;12.30;;;;;1.70;97969.60;;;;110541;1251;42352;-64
2022/02/11 06:53:03;;;;;;;26.80;12.50;;;;;1.90;97968.60;;;;110795;1250;41212;-59
2022/02/11 06:55:34;;;;;;;26.10;12.70;;;;;2.00;97968.60;;;;110580;1252;41157;-56
2022/02/11 06:58:04;;;;;;;19.50;10.20;;;;;2.20;97961.40;;;;110395;1250;41262;-59
2022/02/11 07:00:35;;;;;;;20.10;10.70;;;;;2.30;97956.60;;;;110720;1250;41351;-58
2022/02/11 07:03:05;;;;;;;22.40;11.20;;;;;2.30;97957.00;;;;110565;1252;41565;-59
2022/02/11 07:05:34;;;;;;;25.30;14.00;;;;;2.30;97960.40;;;;110543;1252;41163;-60
2022/02/11 07:08:04;;;;;;;29.50;15.40;;;;;2.20;97960.40;;;;110531;1253;41150;-63
2022/02/11 07:10:34;;;;;;;28.40;15.70;;;;;2.30;97952.60;;;;110538;1252;41366;-60
2022/02/11 07:13:03;;;;;;;24.30;13.30;;;;;2.50;97952.20;;;;110706;1250;41336;-63
2022/02/11 07:15:37;;;;;;;22.70;11.80;;;;;2.80;97949.00;;;;110485;1250;41398;-63
2022/02/11 07:18:06;;;;;;;26.40;14.00;;;;;3.10;97939.00;;;;110727;1251;41272;-62
2022/02/11 07:20:36;;;;;;;31.00;15.90;;;;;3.40;97935.80;;;;110780;1250;41516;-64
2022/02/11 07:23:06;;;;;;;33.90;16.20;;;;;3.60;97931.00;;;;110847;1250;41151;-61
2022/02/11 07:25:35;;;;;;;38.30;20.90;;;;;3.80;97923.80;;;;110688;1252;41129;-62
2022/02/11 07:28:05;;;;;;;31.80;15.90;;;;;4.00;97922.80;;;;110642;1253;41615;-61
2022/02/11 07:30:34;;;;;;;30.40;15.60;;;;;4.28;97918.20;;;;110569;1253;41144;-59
2022/02/11 07:33:03;;;;;;;30.30;14.90;;;;;4.50;97919.40;;;;110740;1250;41133;-58
2022/02/11 07:35:33;;;;;;;32.00;15.80;;;;;4.80;97918.00;;;;110580;1252;41626;-59
2022/02/11 07:38:02;;;;;;;28.90;15.10;;;;;5.10;97924.60;;;;110572;1251;41178;-61
2022/02/11 07:40:31;;;;;;;25.40;12.80;;;;;5.36;97923.00;;;;110780;1250;41372;-59
2022/02/11 07:43:01;;;;;;;23.00;11.60;;;;;5.70;97923.40;;;;110727;1250;42374;-59
2022/02/11 07:45:30;;;;;;;20.80;10.70;;;;;6.00;97924.40;;;;110681;1250;41420;-59
2022/02/11 07:47:59;;;;;;;17.10;8.60;;;;;6.26;97923.60;;;;110732;1250;41141;-60
2022/02/11 07:50:29;;;;;;;17.30;7.80;;;;;6.50;97920.00;;;;110813;1250;41207;-64
2022/02/11 07:52:58;;;;;;;20.60;10.10;;;;;6.80;97913.60;;;;110817;1250;41310;-65
2022/02/11 07:55:27;;;;;;;20.40;10.00;;;;;7.10;97918.80;;;;110811;1250;41646;-62
2022/02/11 07:57:57;;;;;;;20.80;11.10;;;;;7.40;97920.60;;;;110583;1252;41274;-60
2022/02/11 08:00:27;;;;;;;20.30;9.60;;;;;7.66;97923.60;;;;110576;1253;41138;-62
2022/02/11 08:02:56;;;;;;;22.50;10.70;;;;;7.98;97923.40;;;;110623;1250;41635;-59
2022/02/11 08:05:26;;;;;;;20.50;9.20;;;;;8.30;97926.40;;;;110803;1250;41652;-59
2022/02/11 08:07:56;;;;;;;21.40;10.20;;;;;8.70;97924.80;;;;110773;1250;41601;-59
2022/02/11 08:10:25;;;;;;;22.00;10.20;;;;;8.98;97930.00;;;;110655;1250;41632;-58
2022/02/11 08:12:57;;;;;;;19.60;11.20;;;;;9.20;97932.40;;;;110755;1250;42546;-59
2022/02/11 08:15:26;;;;;;;24.90;14.60;;;;;9.40;97934.80;;;;110852;1250;41349;-63
2022/02/11 08:17:57;;;;;;;26.80;15.40;;;;;9.50;97933.80;;;;110622;1252;42401;-65
2022/02/11 08:20:27;;;;;;;23.40;12.10;;;;;9.68;97936.40;;;;110780;1250;41546;-64
2022/02/11 08:22:58;;;;;;;17.40;8.90;;;;;10.14;97933.00;;;;110754;1250;41715;-65
2022/02/11 08:25:27;;;;;;;21.60;9.90;;;;;10.80;97936.80;;;;110827;1250;41274;-67
2022/02/11 08:27:58;;;;;;;;;;;;;11.62;97931.80;;;;110544;1250;41147;-65
2022/02/11 08:30:49;;;;;;;13.00;6.60;;;;;12.68;97920.00;;;;110728;1250;41137;-65
2022/02/11 08:33:24;;;;;;;13.80;6.80;;;;;13.30;97908.00;;;;110738;1250;41827;-65
2022/02/11 08:35:55;;;;;;;14.90;7.00;;;;;14.78;97903.80;;;;110672;1250;41142;-64
2022/02/11 08:38:26;;;;;;;12.80;5.90;;;;;16.60;97904.80;;;;110818;1249;41616;-66
2022/02/11 08:40:56;;;;;;;13.30;6.50;;;;;18.14;97889.60;;;;110832;1250;41267;-61
2022/02/11 08:43:25;;;;;;;14.20;6.80;;;;;18.98;97884.60;;;;110815;1253;41350;-61
2022/02/11 08:45:54;;;;;;;11.80;6.00;;;;;17.98;97889.80;;;;110525;1250;41204;-59
2022/02/11 08:48:24;;;;;;;12.70;6.20;;;;;19.66;97889.80;;;;110755;1250;41255;-60
2022/02/11 08:50:53;;;;;;;16.00;6.10;;;;;20.32;97873.20;;;;110748;1250;41378;-60
2022/02/11 08:53:33;;;;;;;13.20;6.20;;;;;22.46;97867.80;;;;110708;1250;41528;-63
2022/02/11 08:56:05;;;;;;;12.50;6.80;;;;;23.56;97865.60;;;;110714;1250;42990;-64
2022/02/11 08:58:36;;;;;;;12.70;5.90;;;;;25.22;97864.20;;;;110706;1250;42015;-64
2022/02/11 09:01:06;;;;;;;11.50;5.90;;;;;26.62;97860.80;;;;110512;1252;42097;-64
2022/02/11 09:03:36;;;;;;;12.40;6.10;;;;;27.70;97857.00;;;;110586;1250;42078;-65
2022/02/11 09:06:06;;;;;;;11.40;5.80;;;;;28.82;97851.60;;;;110772;1250;41291;-65
2022/02/11 09:08:36;;;;;;;;;;;;;30.06;97853.20;;;;110698;1251;41131;-65
2022/02/11 09:11:08;;;;;;;13.70;5.60;;;;;30.86;97851.80;;;;110613;1252;41612;-64
2022/02/11 09:13:37;;;;;;;11.90;5.50;;;;;31.28;97849.60;;;;110592;1252;41161;-63
2022/02/11 09:16:06;;;;;;;14.00;6.30;;;;;31.90;97847.60;;;;110817;1250;41242;-63
2022/02/11 09:18:36;;;;;;;11.50;5.70;;;;;32.58;97846.20;;;;110759;1250;41250;-68
2022/02/11 09:21:07;;;;;;;11.90;6.10;;;;;33.02;97849.60;;;;110733;1250;41162;-61
2022/02/11 09:23:36;;;;;;;;;;;;;34.06;97850.80;;;;110610;1252;41160;-61
2022/02/11 09:26:06;;;;;;;13.00;6.50;;;;;34.26;97844.80;;;;110485;1253;41159;-61
2022/02/11 09:28:36;;;;;;;12.50;5.80;;;;;34.20;97854.80;;;;110732;1250;41164;-60
2022/02/11 09:31:08;;;;;;;12.30;6.10;;;;;34.70;97856.00;;;;110738;1250;41374;-63
2022/02/11 09:33:38;;;;;;;12.40;6.40;;;;;35.30;97850.40;;;;110567;1253;41434;-60
2022/02/11 09:36:08;;;;;;;10.00;5.20;;;;;35.92;97857.40;;;;110764;1250;41629;-60
2022/02/11 09:38:37;;;;;;;12.20;5.70;;;;;36.60;97852.40;;;;110617;1250;41635;-60
2022/02/11 09:41:07;;;;;;;14.50;6.30;;;;;37.10;97852.00;;;;110611;1253;41254;-59
2022/02/11 09:43:38;;;;;;;11.00;5.80;;;;;36.90;97853.20;;;;110860;1251;41632;-60
2022/02/11 09:46:08;;;;;;;11.80;5.90;;;;;35.32;97853.60;;;;110495;1253;41133;-61
2022/02/11 09:48:36;;;;;;;12.60;6.20;;;;;35.74;97858.40;;;;110729;1250;41265;-65
2022/02/11 09:51:04;;;;;;;10.90;5.40;;;;;34.62;97857.60;;;;110814;1253;41270;-66
2022/02/11 09:53:33;;;;;;;9.90;5.00;;;;;35.40;97856.00;;;;110691;1253;41157;-63
2022/02/11 09:56:04;;;;;;;12.10;6.00;;;;;35.90;97855.60;;;;110706;1250;41156;-63
2022/02/11 09:58:51;;;;;;;11.10;5.60;;;;;36.70;97855.80;;;;110532;1252;41267;-66
2022/02/11 10:01:20;;;;;;;;;;;;;37.62;97845.80;;;;110784;1250;41194;-63
2022/02/11 10:04:13;;;;;;;12.90;5.50;;;;;38.14;97842.60;;;;110786;1252;41610;-60
2022/02/11 10:06:46;;;;;;;10.10;5.50;;;;;38.48;97847.00;;;;110755;1250;41812;-65
2022/02/11 10:09:16;;;;;;;9.30;4.70;;;;;38.86;97840.60;;;;110787;1250;41716;-65
2022/02/11 10:11:46;;;;;;;13.50;5.50;;;;;39.34;97842.00;;;;110677;1250;41143;-60
2022/02/11 10:14:27;;;;;;;11.90;5.60;;;;;39.46;97842.20;;;;110559;1250;41257;-61
2022/02/11 10:17:05;;;;;;;11.00;5.40;;;;;39.70;97840.60;;;;110771;1250;41374;-61
2022/02/11 10:19:41;;;;;;;10.20;5.10;;;;;40.10;97835.40;;;;110723;1251;41772;-63
2022/02/11 10:22:18;;;;;;;9.90;5.10;;;;;40.70;97831.00;;;;110739;1250;41934;-65
2022/02/11 10:24:48;;;;;;;11.40;5.10;;;;;40.90;97836.60;;;;110766;1250;41173;-67
2022/02/11 10:27:29;;;;;;;12.80;5.70;;;;;41.10;97834.80;;;;110738;1250;41255;-64
2022/02/11 10:30:01;;;;;;;12.80;5.40;;;;;41.20;97836.40;;;;110705;1250;41642;-65
2022/02/11 10:32:38;;;;;;;10.70;5.10;;;;;40.96;97833.40;;;;110729;1250;41161;-61
2022/02/11 10:35:09;;;;;;;9.30;5.20;;;;;40.50;97834.40;;;;110753;1250;41178;-62
2022/02/11 10:38:23;;;;;;;14.00;7.50;;;;;40.70;97831.20;;;;110700;1253;41682;-65
2022/02/11 10:40:53;;;;;;;16.20;8.90;;;;;41.38;97824.40;;;;110190;1258;41158;-66
2022/02/11 10:43:29;;;;;;;14.80;8.20;;;;;41.08;97821.20;;;;110210;1256;41158;-64
2022/02/11 10:46:01;;;;;;;14.00;8.00;;;;;41.00;97817.00;;;;110155;1258;41505;-65
2022/02/11 10:48:37;;;;;;;13.30;7.90;;;;;41.54;97810.00;;;;110152;1256;41276;-66
2022/02/11 10:51:08;;;;;;;13.40;7.60;;;;;41.42;97808.00;;;;110184;1258;41171;-64
2022/02/11 10:53:42;;;;;;;16.00;8.10;;;;;42.00;97802.40;;;;110273;1256;41278;-63
2022/02/11 10:56:13;;;;;;;14.80;8.50;;;;;42.74;97799.40;;;;110237;1256;41285;-63
2022/02/11 10:58:53;;;;;;;15.70;9.00;;;;;42.90;97797.00;;;;110150;1258;41272;-64
2022/02/11 11:01:25;;;;;;;15.80;7.90;;;;;42.42;97794.60;;;;110266;1257;41923;-65
2022/02/11 11:03:57;;;;;;;13.90;7.90;;;;;42.70;97791.00;;;;110292;1256;41366;-67
2022/02/11 11:06:28;;;;;;;15.30;8.20;;;;;43.22;97791.80;;;;110292;1256;41841;-64
2022/02/11 11:08:58;;;;;;;12.80;7.40;;;;;43.70;97786.60;;;;110326;1256;41146;-65
2022/02/11 11:11:28;;;;;;;15.80;7.70;;;;;43.84;97786.20;;;;110176;1259;41654;-65
2022/02/11 11:14:00;;;;;;;15.00;8.30;;;;;44.30;97785.80;;;;110109;1259;41220;-65
2022/02/11 11:16:30;;;;;;;15.60;8.00;;;;;44.80;97784.40;;;;110131;1259;42407;-61
2022/02/11 11:19:00;;;;;;;16.70;7.80;;;;;45.00;97784.20;;;;110408;1253;41276;-61
2022/02/11 11:21:31;;;;;;;12.60;7.20;;;;;45.22;97780.20;;;;110578;1253;41197;-61
2022/02/11 11:24:03;;;;;;;12.60;7.40;;;;;45.50;97784.00;;;;110803;1250;41256;-62
2022/02/11 11:26:45;;;;;;;15.80;7.40;;;;;45.78;97776.80;;;;110761;1251;41187;-62
2022/02/11 11:29:18;;;;;;;13.50;6.50;;;;;45.02;97782.00;;;;110660;1250;41205;-61
2022/02/11 11:32:00;;;;;;;15.50;6.70;;;;;43.20;97783.00;;;;110462;1250;41245;-62
2022/02/11 11:34:35;;;;;;;10.10;5.60;;;;;39.86;97780.20;;;;110767;1253;41388;-60
2022/02/11 11:37:10;;;;;;;13.20;5.60;;;;;40.56;97781.20;;;;110751;1251;41146;-61
2022/02/11 11:39:42;;;;;;;10.60;5.40;;;;;40.78;97777.20;;;;110524;1253;41235;-61
2022/02/11 11:42:14;;;;;;;10.70;5.40;;;;;41.60;97780.60;;;;110626;1253;41930;-60
2022/02/11 11:44:45;;;;;;;11.10;5.60;;;;;41.04;97776.60;;;;110550;1253;41151;-61
2022/02/11 11:47:27;;;;;;;11.50;5.10;;;;;41.88;97775.40;;;;110862;1250;41181;-61
2022/02/11 11:49:58;;;;;;;12.70;6.20;;;;;42.42;97773.00;;;;110588;1253;41418;-62
2022/02/11 11:52:45;;;;;;;13.80;6.50;;;;;43.10;97772.60;;;;110600;1253;41865;-61
2022/02/11 11:55:23;;;;;;;13.30;6.30;;;;;43.64;97767.20;;;;110457;1253;42972;-63
2022/02/11 11:57:53;;;;;;;11.20;5.80;;;;;43.68;97765.60;;;;110765;1250;42263;-61
2022/02/11 12:00:38;;;;;;;12.20;6.50;;;;;43.80;97760.00;;;;110728;1250;41267;-62
2022/02/11 12:03:11;;;;;;;13.40;7.10;;;;;44.08;97763.20;;;;110624;1250;41616;-61
2022/02/11 12:05:53;;;;;;;14.50;7.30;;;;;43.70;97757.80;;;;110579;1249;41150;-61
2022/02/11 12:08:29;;;;;;;13.00;7.50;;;;;43.74;97761.60;;;;110763;1250;41136;-62
2022/02/11 12:10:59;;;;;;;15.40;7.80;;;;;43.16;97766.80;;;;110629;1253;41566;-61
2022/02/11 12:13:31;;;;;;;12.30;7.30;;;;;43.12;97766.00;;;;110710;1253;41693;-61
2022/02/11 12:16:00;;;;;;;12.30;6.90;;;;;43.06;97767.20;;;;110724;1252;41645;-61
2022/02/11 12:18:30;;;;;;;13.60;7.10;;;;;43.16;97768.20;;;;110767;1250;42157;-61
2022/02/11 12:20:59;;;;;;;11.90;6.20;;;;;43.22;97772.60;;;;110760;1251;41360;-67
2022/02/11 12:29:07;;;;;;;12.00;6.10;;;;;43.40;97766.80;;;;110617;1251;41151;-61
2022/02/11 12:31:38;;;;;;;10.90;5.50;;;;;43.36;97769.00;;;;110790;1251;42209;-60
2022/02/11 12:34:16;;;;;;;12.70;6.20;;;;;43.14;97770.00;;;;110538;1253;41143;-67
2022/02/11 12:36:46;;;;;;;11.30;6.00;;;;;42.18;97769.60;;;;110795;1250;42579;-66
2022/02/11 12:39:20;;;;;;;11.70;6.10;;;;;41.84;97769.80;;;;110542;1253;41789;-68
2022/02/11 12:41:51;;;;;;;12.00;5.60;;;;;42.00;97769.20;;;;110570;1253;41143;-70
2022/02/11 12:44:32;;;;;;;12.40;5.40;;;;;41.94;97770.60;;;;110600;1253;41162;-69
2022/02/11 12:47:02;;;;;;;10.70;4.90;;;;;42.00;97771.20;;;;110549;1253;41254;-63
2022/02/11 12:49:33;;;;;;;11.90;5.50;;;;;41.96;97763.80;;;;110531;1253;41770;-62
2022/02/11 12:52:03;;;;;;;10.30;5.20;;;;;41.16;97766.80;;;;110291;1256;42471;-68
2022/02/11 12:54:32;;;;;;;11.40;5.10;;;;;40.54;97768.00;;;;110454;1253;41937;-68
2022/02/11 12:57:07;;;;;;;11.20;4.90;;;;;40.28;97762.40;;;;110529;1253;41265;-65
2022/02/11 12:59:49;;;;;;;9.50;4.70;;;;;39.80;97763.80;;;;110592;1253;41160;-64
2022/02/11 13:02:29;;;;;;;9.80;4.10;;;;;40.10;97763.00;;;;110742;1250;41415;-66
2022/02/11 13:05:09;;;;;;;8.80;3.70;;;;;40.20;97766.60;;;;110779;1250;41142;-68
2022/02/11 13:07:43;;;;;;;10.40;4.60;;;;;40.10;97765.40;;;;110764;1250;41152;-62
2022/02/11 13:10:26;;;;;;;11.90;4.80;;;;;39.42;97768.60;;;;110615;1253;41289;-62
2022/02/11 13:12:58;;;;;;;9.70;4.60;;;;;38.80;97764.00;;;;110612;1252;41174;-68
2022/02/11 13:15:32;;;;;;;9.10;4.10;;;;;38.80;97761.60;;;;110743;1253;41140;-62
2022/02/11 13:18:10;;;;;;;10.80;4.30;;;;;38.30;97761.80;;;;110700;1250;41209;-61
2022/02/11 13:20:46;;;;;;;9.00;4.00;;;;;38.30;97757.40;;;;110627;1253;41158;-61
2022/02/11 13:23:19;;;;;;;9.00;4.10;;;;;38.32;97753.00;;;;110682;1252;41328;-61
2022/02/11 13:25:49;;;;;;;9.80;4.10;;;;;38.20;97755.20;;;;110626;1252;41477;-63
2022/02/11 13:28:20;;;;;;;8.70;4.10;;;;;37.82;97761.80;;;;110675;1251;41949;-64
2022/02/11 13:30:57;;;;;;;11.40;5.10;;;;;37.38;97765.60;;;;110567;1253;42073;-61
2022/02/11 13:33:29;;;;;;;10.40;4.80;;;;;36.90;97766.40;;;;110633;1253;41473;-61
2022/02/11 13:36:02;;;;;;;10.20;4.90;;;;;36.20;97761.20;;;;110503;1253;41663;-61
2022/02/11 13:38:46;;;;;;;9.00;4.10;;;;;35.72;97763.00;;;;110658;1253;41158;-60
2022/02/11 13:41:16;;;;;;;9.90;4.30;;;;;35.30;97757.20;;;;110759;1249;42469;-61
2022/02/11 13:43:55;;;;;;;10.40;4.80;;;;;35.20;97755.80;;;;110861;1250;41182;-60
2022/02/11 13:46:53;;;;;;;10.00;4.80;;;;;34.28;97753.60;;;;110744;1251;41732;-61
2022/02/11 13:49:22;;;;;;;10.80;5.00;;;;;32.36;97752.00;;;;110573;1251;41138;-62
2022/02/11 13:55:07;;;;;;;12.10;5.60;;;;;32.10;97749.00;;;;110743;1251;41208;-61
2022/02/11 13:57:37;;;;;;;10.00;4.90;;;;;31.40;97742.00;;;;110494;1253;41380;-68
2022/02/11 14:00:26;;;;;;;10.80;5.60;;;;;31.00;97747.00;;;;110762;1250;41162;-68
2022/02/11 14:02:55;;;;;;;13.00;5.80;;;;;30.14;97756.80;;;;110780;1250;41901;-62
2022/02/11 14:05:29;;;;;;;12.30;5.90;;;;;29.08;97760.00;;;;110790;1251;41563;-60
2022/02/11 14:08:00;;;;;;;13.60;6.40;;;;;27.98;97765.40;;;;110853;1252;41624;-68
2022/02/11 14:10:29;;;;;;;12.20;6.40;;;;;27.24;97772.00;;;;110838;1250;41640;-67
2022/02/11 14:13:08;;;;;;;14.20;6.90;;;;;26.50;97773.60;;;;110867;1250;41262;-61
2022/02/11 14:15:39;;;;;;;13.80;7.20;;;;;25.66;97774.40;;;;110633;1253;41274;-60
2022/02/11 14:18:08;;;;;;;14.00;6.50;;;;;24.98;97774.80;;;;110688;1251;41619;-60
2022/02/11 14:20:38;;;;;;;13.30;6.30;;;;;24.46;97778.00;;;;110749;1253;42377;-61
2022/02/11 14:23:25;;;;;;;12.40;6.00;;;;;23.96;97776.20;;;;110761;1250;41626;-60
2022/02/11 14:25:57;;;;;;;12.00;6.00;;;;;23.56;97776.40;;;;110577;1253;41263;-62
2022/02/11 14:28:27;;;;;;;12.20;5.60;;;;;23.00;97779.40;;;;110750;1253;41258;-60
2022/02/11 14:30:58;;;;;;;12.40;6.00;;;;;22.36;97785.20;;;;110597;1253;41268;-61
2022/02/11 14:33:27;;;;;;;12.20;6.20;;;;;21.92;97784.80;;;;110639;1253;41309;-65
2022/02/11 14:35:56;;;;;;;12.00;6.10;;;;;21.46;97790.00;;;;110564;1252;41643;-64
2022/02/11 14:38:28;;;;;;;10.80;5.70;;;;;20.74;97795.60;;;;110797;1250;41939;-69
2022/02/11 14:43:45;;;;;;;13.30;6.30;;;;;20.20;97800.00;;;;110461;1250;336301;-66
2022/02/11 14:46:14;;;;;;;13.90;6.40;;;;;19.90;97802.40;;;;110805;1250;41149;-65
2022/02/11 14:48:44;;;;;;;13.60;6.40;;;;;19.42;97802.60;;;;110645;1253;42161;-66
2022/02/11 14:51:13;;;;;;;13.50;6.70;;;;;18.94;97805.60;;;;110593;1253;41190;-65
2022/02/11 14:53:43;;;;;;;12.90;6.60;;;;;18.58;97811.20;;;;110568;1253;41148;-64
2022/02/11 14:56:13;;;;;;;14.60;6.80;;;;;18.16;97809.60;;;;110740;1253;41146;-63
2022/02/11 14:58:43;;;;;;;12.60;6.70;;;;;17.78;97814.20;;;;110547;1253;42227;-60
2022/02/11 15:01:12;;;;;;;15.30;7.50;;;;;17.30;97813.40;;;;110486;1253;41272;-60
2022/02/11 15:03:42;;;;;;;18.30;7.00;;;;;16.14;97819.60;;;;110800;1251;41264;-68
2022/02/11 15:06:11;;;;;;;15.90;7.60;;;;;15.74;97820.00;;;;110734;1253;41442;-65
2022/02/11 15:08:40;;;;;;;16.10;7.70;;;;;15.16;97824.20;;;;110526;1253;41182;-60
2022/02/11 15:11:10;;;;;;;14.80;8.00;;;;;14.60;97828.00;;;;110523;1253;41654;-63
2022/02/11 15:13:39;;;;;;;15.90;7.90;;;;;14.06;97840.40;;;;110702;1253;41738;-61
2022/02/11 15:16:08;;;;;;;18.70;8.30;;;;;13.62;97840.60;;;;110570;1250;41179;-64
2022/02/11 15:18:37;;;;;;;17.70;9.00;;;;;12.88;97844.40;;;;110753;1251;41579;-62
2022/02/11 15:21:07;;;;;;;16.40;8.40;;;;;12.40;97844.80;;;;110591;1253;41143;-61
2022/02/11 15:23:38;;;;;;;19.40;9.00;;;;;11.90;97846.00;;;;110573;1253;41333;-60
2022/02/11 15:26:08;;;;;;;;;;;;;11.70;97846.80;;;;110614;1253;42323;-60
2022/02/11 15:28:39;;;;;;;18.20;8.20;;;;;11.40;97853.20;;;;110554;1253;41279;-67
2022/02/11 15:31:12;;;;;;;19.60;9.40;;;;;11.18;97852.80;;;;110529;1253;41158;-66
2022/02/11 15:33:42;;;;;;;16.50;8.20;;;;;10.80;97860.00;;;;110782;1253;41937;-68
2022/02/11 15:36:14;;;;;;;17.10;8.10;;;;;10.70;97864.40;;;;110723;1253;41992;-67
2022/02/11 15:38:44;;;;;;;15.80;8.10;;;;;10.60;97861.80;;;;110812;1250;41140;-69
2022/02/11 15:41:14;;;;;;;17.20;7.80;;;;;10.50;97860.40;;;;110698;1253;41157;-62
2022/02/11 15:43:43;;;;;;;17.50;7.90;;;;;10.30;97867.20;;;;110752;1253;42554;-61
2022/02/11 15:46:12;;;;;;;15.20;8.00;;;;;10.20;97865.80;;;;110559;1253;41156;-60
2022/02/11 15:48:42;;;;;;;16.30;8.30;;;;;10.02;97868.00;;;;110592;1253;41398;-61
2022/02/11 15:51:13;;;;;;;17.10;8.70;;;;;9.80;97875.60;;;;110591;1253;41189;-59
2022/02/11 15:53:42;;;;;;;17.60;9.00;;;;;9.62;97875.80;;;;110709;1252;41597;-59
2022/02/11 15:56:11;;;;;;;21.70;9.20;;;;;9.42;97878.20;;;;110677;1253;41141;-60
2022/02/11 15:58:40;;;;;;;18.10;9.00;;;;;9.20;97882.20;;;;110630;1251;41140;-60
2022/02/11 16:01:10;;;;;;;15.20;7.20;;;;;9.02;97884.80;;;;110732;1249;41118;-61
2022/02/11 16:03:39;;;;;;;15.90;8.50;;;;;8.90;97881.40;;;;110747;1251;41138;-67
2022/02/11 16:06:08;;;;;;;16.70;8.20;;;;;8.80;97884.40;;;;110556;1253;41136;-67
2022/02/11 16:08:38;;;;;;;17.20;8.60;;;;;8.70;97891.20;;;;110457;1253;41270;-67
2022/02/11 16:11:07;;;;;;;19.30;9.20;;;;;8.60;97892.20;;;;110707;1250;41371;-68
2022/02/11 16:13:36;;;;;;;18.30;9.60;;;;;8.60;97895.00;;;;110761;1251;41150;-60
2022/02/11 16:16:05;;;;;;;22.00;9.70;;;;;8.50;97902.80;;;;110731;1253;41738;-60
2022/02/11 16:18:35;;;;;;;21.30;10.30;;;;;8.50;97898.40;;;;110652;1253;41494;-59